createdAt,value
2022-10-22T00:00:51.195Z,30.75
2022-10-22T00:03:18.373Z,30.40
2022-10-22T00:05:45.865Z,30.61
2022-10-22T00:08:14.321Z,30.78
2022-10-22T00:10:41.885Z,30.81
2022-10-22T00:13:09.066Z,31.02
2022-10-22T00:15:42.525Z,31.07
2022-10-22T00:18:09.835Z,30.81
2022-10-22T00:20:37.059Z,30.85
2022-10-22T00:23:05.509Z,30.93
2022-10-22T00:25:34.404Z,30.88
2022-10-22T00:28:02.636Z,30.88
2022-10-22T00:30:29.926Z,30.90
2022-10-22T00:32:57.143Z,30.83
2022-10-22T00:35:24.429Z,30.74
2022-10-22T00:37:51.821Z,30.67
2022-10-22T00:40:19.059Z,30.90
2022-10-22T00:42:46.299Z,30.93
2022-10-22T00:45:16.818Z,30.91
2022-10-22T00:48:04.803Z,30.97
2022-10-22T00:50:35.865Z,30.43
2022-10-22T00:53:04.650Z,30.57
2022-10-22T00:55:33.072Z,30.74
2022-10-22T00:58:01.557Z,31.07
2022-10-22T01:00:29.003Z,30.94
2022-10-22T01:02:57.389Z,31.13
2022-10-22T01:05:27.382Z,31.12
2022-10-22T01:07:54.989Z,31.00
2022-10-22T01:10:22.146Z,30.80
2022-10-22T01:13:00.085Z,30.81
2022-10-22T01:15:33.447Z,31.07
2022-10-22T01:18:03.807Z,30.74
2022-10-22T01:20:49.986Z,30.73
2022-10-22T01:23:26.961Z,30.51
2022-10-22T01:25:58.605Z,31.07
2022-10-22T01:28:44.444Z,30.75
2022-10-22T01:31:13.632Z,30.79
2022-10-22T01:33:42.026Z,31.00
2022-10-22T01:36:09.712Z,30.89
2022-10-22T01:38:38.183Z,30.74
2022-10-22T01:41:05.777Z,30.60
2022-10-22T01:43:33.494Z,30.88
2022-10-22T01:46:02.363Z,30.49
2022-10-22T01:48:48.154Z,30.98
2022-10-22T01:51:24.254Z,30.92
2022-10-22T01:53:55.195Z,31.14
2022-10-22T01:56:31.745Z,30.71
2022-10-22T01:59:17.837Z,30.70
2022-10-22T02:01:48.186Z,30.48
2022-10-22T02:04:15.413Z,30.79
2022-10-22T02:06:43.802Z,31.00
2022-10-22T02:09:13.962Z,31.10
2022-10-22T02:11:42.067Z,31.15
2022-10-22T02:14:10.983Z,31.40
2022-10-22T02:16:41.392Z,31.13
2022-10-22T02:19:23.391Z,31.23
2022-10-22T02:21:51.156Z,30.68
2022-10-22T02:24:18.831Z,31.29
2022-10-22T02:27:01.375Z,31.19
2022-10-22T02:29:36.079Z,31.06
2022-10-22T02:32:06.098Z,30.78
2022-10-22T02:34:33.506Z,30.85
2022-10-22T02:37:02.319Z,30.78
2022-10-22T02:39:31.417Z,30.86
2022-10-22T02:42:02.563Z,30.70
2022-10-22T02:44:29.823Z,30.75
2022-10-22T02:46:57.197Z,31.21
2022-10-22T02:49:24.530Z,30.99
2022-10-22T02:51:51.753Z,30.84
2022-10-22T02:54:19.146Z,30.89
2022-10-22T02:56:46.357Z,30.56
2022-10-22T02:59:13.914Z,30.46
2022-10-22T03:01:41.135Z,30.72
2022-10-22T03:04:08.383Z,30.85
2022-10-22T03:06:44.189Z,30.51
2022-10-22T03:09:11.707Z,30.71
2022-10-22T03:11:38.889Z,31.22
2022-10-22T03:14:06.168Z,30.63
2022-10-22T03:16:33.364Z,30.77
2022-10-22T03:19:02.068Z,30.45
2022-10-22T03:21:35.916Z,30.19
2022-10-22T03:24:06.322Z,30.50
2022-10-22T03:26:33.972Z,30.70
2022-10-22T03:29:01.508Z,31.02
2022-10-22T03:31:28.864Z,31.03
2022-10-22T03:33:56.120Z,30.70
2022-10-22T03:36:24.234Z,30.75
2022-10-22T03:38:51.496Z,30.66
2022-10-22T03:41:18.794Z,31.07
2022-10-22T03:43:50.105Z,30.94
2022-10-22T03:46:17.315Z,31.07
2022-10-22T03:48:44.487Z,31.17
2022-10-22T03:51:11.847Z,30.84
2022-10-22T03:53:39.050Z,30.88
2022-10-22T03:56:10.749Z,31.06
2022-10-22T03:58:38.693Z,30.72
2022-10-22T04:01:10.498Z,30.84
2022-10-22T04:03:45.923Z,31.06
2022-10-22T04:06:13.692Z,31.29
2022-10-22T04:08:41.402Z,31.26
2022-10-22T04:11:09.597Z,30.76
2022-10-22T04:13:37.000Z,30.70
2022-10-22T04:16:12.007Z,31.06
2022-10-22T04:18:39.501Z,30.92
2022-10-22T04:21:07.633Z,30.90
2022-10-22T04:23:35.190Z,30.96
2022-10-22T04:26:03.913Z,31.15
2022-10-22T04:28:31.178Z,31.26
2022-10-22T04:30:58.504Z,31.11
2022-10-22T04:33:25.837Z,30.90
2022-10-22T04:35:53.028Z,30.82
2022-10-22T04:38:20.261Z,30.77
2022-10-22T04:40:47.424Z,30.98
2022-10-22T04:43:14.757Z,30.87
2022-10-22T04:45:42.027Z,30.97
2022-10-22T04:48:09.350Z,30.91
2022-10-22T04:50:36.576Z,31.39
2022-10-22T04:53:06.155Z,31.15
2022-10-22T04:55:33.395Z,30.92
2022-10-22T04:58:01.449Z,30.66
2022-10-22T05:00:28.810Z,30.96
2022-10-22T05:02:56.005Z,31.01
2022-10-22T05:05:23.236Z,30.61
2022-10-22T05:07:51.222Z,30.79
2022-10-22T05:10:18.501Z,30.57
2022-10-22T05:12:45.953Z,30.76
2022-10-22T05:15:13.193Z,30.67
2022-10-22T05:17:40.550Z,30.64
2022-10-22T05:20:08.404Z,30.68
2022-10-22T05:22:35.708Z,30.62
2022-10-22T05:25:03.210Z,30.78
2022-10-22T05:27:30.404Z,30.85
2022-10-22T05:29:57.748Z,30.61
2022-10-22T05:32:24.994Z,30.60
2022-10-22T05:34:52.358Z,30.86
2022-10-22T05:37:19.816Z,30.89
2022-10-22T05:39:47.105Z,30.69
2022-10-22T05:42:14.287Z,30.49
2022-10-22T05:44:41.709Z,30.72
2022-10-22T05:47:10.097Z,30.65
2022-10-22T05:49:37.453Z,30.63
2022-10-22T05:52:04.802Z,30.51
2022-10-22T05:54:32.123Z,30.81
2022-10-22T05:56:59.332Z,30.88
2022-10-22T05:59:26.778Z,30.98
2022-10-22T06:01:54.112Z,30.96
2022-10-22T06:04:21.704Z,30.77
2022-10-22T06:06:53.163Z,30.64
2022-10-22T06:09:22.418Z,30.90
2022-10-22T06:11:50.952Z,30.60
2022-10-22T06:14:19.063Z,30.72
2022-10-22T06:16:46.709Z,30.86
2022-10-22T06:19:15.808Z,30.79
2022-10-22T06:21:43.278Z,30.83
2022-10-22T06:24:10.783Z,30.52
2022-10-22T06:26:38.551Z,30.80
2022-10-22T06:29:05.849Z,30.67
2022-10-22T06:31:36.876Z,30.83
2022-10-22T06:34:05.116Z,30.63
2022-10-22T06:36:32.653Z,30.54
2022-10-22T06:39:00.035Z,30.62
2022-10-22T06:41:28.980Z,30.61
2022-10-22T06:43:57.673Z,31.04
2022-10-22T06:46:25.868Z,30.75
2022-10-22T06:48:57.596Z,30.94
2022-10-22T06:51:25.615Z,30.74
2022-10-22T06:53:53.188Z,30.67
2022-10-22T06:56:21.456Z,30.88
2022-10-22T06:58:49.504Z,30.86
2022-10-22T07:01:17.867Z,30.87
2022-10-22T07:03:45.173Z,30.62
2022-10-22T07:06:13.581Z,30.91
2022-10-22T07:08:41.404Z,30.93
2022-10-22T07:11:10.424Z,30.79
2022-10-22T07:13:37.902Z,30.68
2022-10-22T07:16:06.211Z,30.83
2022-10-22T07:18:33.734Z,30.47
2022-10-22T07:21:01.276Z,30.30
2022-10-22T07:23:28.703Z,30.61
2022-10-22T07:28:28.777Z,30.51
2022-10-22T07:30:56.065Z,30.65
2022-10-22T07:33:23.360Z,30.59
2022-10-22T07:35:50.608Z,30.65
2022-10-22T07:38:18.004Z,30.73
2022-10-22T07:40:45.213Z,30.50
2022-10-22T07:43:12.588Z,30.51
2022-10-22T07:45:41.281Z,30.44
2022-10-22T07:48:08.532Z,30.42
2022-10-22T07:50:36.025Z,30.54
2022-10-22T07:53:03.501Z,30.67
2022-10-22T07:55:31.310Z,30.55
2022-10-22T07:57:58.536Z,30.27
2022-10-22T08:00:26.007Z,30.57
2022-10-22T08:02:53.552Z,30.50
2022-10-22T08:05:20.758Z,30.77
2022-10-22T08:07:48.083Z,30.52
2022-10-22T08:10:15.427Z,30.84
2022-10-22T08:12:43.065Z,30.47
2022-10-22T08:15:10.811Z,30.53
2022-10-22T08:17:38.226Z,30.56
2022-10-22T08:20:05.685Z,30.31
2022-10-22T08:22:33.103Z,30.25
2022-10-22T08:25:00.575Z,30.42
2022-10-22T08:27:27.952Z,30.35
2022-10-22T08:29:55.213Z,30.39
2022-10-22T08:32:22.594Z,30.35
2022-10-22T08:34:50.108Z,30.21
2022-10-22T08:37:17.926Z,30.66
2022-10-22T08:39:45.297Z,30.38
2022-10-22T08:42:31.327Z,30.55
2022-10-22T08:45:13.543Z,30.49
2022-10-22T08:47:41.031Z,30.49
2022-10-22T08:50:09.985Z,30.65
2022-10-22T08:52:39.401Z,30.39
2022-10-22T08:55:12.623Z,30.34
2022-10-22T08:57:52.550Z,30.50
2022-10-22T09:00:27.711Z,30.30
2022-10-22T09:03:13.680Z,30.18
2022-10-22T09:05:59.164Z,30.48
2022-10-22T09:08:26.498Z,30.64
2022-10-22T09:10:57.608Z,30.41
2022-10-22T09:13:25.073Z,30.54
2022-10-22T09:15:59.051Z,30.69
2022-10-22T09:18:39.513Z,30.75
2022-10-22T09:21:16.070Z,31.08
2022-10-22T09:24:02.273Z,30.44
2022-10-22T09:26:30.377Z,30.65
2022-10-22T09:28:59.537Z,31.05
2022-10-22T09:31:28.330Z,30.79
2022-10-22T09:33:55.566Z,30.81
2022-10-22T09:36:23.292Z,30.53
2022-10-22T09:38:51.920Z,30.41
2022-10-22T09:41:19.917Z,30.75
2022-10-22T09:43:47.684Z,30.72
2022-10-22T09:46:19.151Z,30.60
2022-10-22T09:49:00.940Z,30.72
2022-10-22T09:51:37.707Z,30.54
2022-10-22T09:54:14.682Z,30.76
2022-10-22T09:56:42.559Z,30.86
2022-10-22T09:59:14.931Z,30.62
2022-10-22T10:01:42.196Z,30.43
2022-10-22T10:04:13.184Z,30.59
2022-10-22T10:06:41.527Z,30.64
2022-10-22T10:09:30.212Z,30.59
2022-10-22T10:12:03.480Z,30.69
2022-10-22T10:14:46.369Z,30.86
2022-10-22T10:17:13.767Z,30.52
2022-10-22T10:20:10.481Z,30.45
2022-10-22T10:22:53.208Z,30.61
2022-10-22T10:25:32.957Z,30.36
2022-10-22T10:28:04.381Z,30.44
2022-10-22T10:30:33.277Z,30.53
2022-10-22T10:33:00.464Z,30.60
2022-10-22T10:35:27.880Z,30.55
2022-10-22T10:38:14.011Z,30.43
2022-10-22T10:40:52.626Z,30.09
2022-10-22T10:43:29.803Z,30.13
2022-10-22T10:46:08.212Z,30.38
2022-10-22T10:48:35.478Z,30.45
2022-10-22T10:51:02.634Z,30.63
2022-10-22T10:53:37.258Z,31.03
2022-10-22T10:56:13.647Z,30.67
2022-10-22T10:58:54.696Z,30.51
2022-10-22T11:01:21.931Z,30.49
2022-10-22T11:04:26.431Z,30.43
2022-10-22T11:07:33.496Z,30.44
2022-10-22T11:10:21.939Z,30.47
2022-10-22T11:12:53.102Z,30.30
2022-10-22T11:15:44.166Z,30.65
2022-10-22T11:18:11.522Z,30.65
2022-10-22T11:20:49.680Z,30.52
2022-10-22T11:23:24.566Z,30.48
2022-10-22T11:25:52.194Z,30.66
2022-10-22T11:28:26.200Z,30.83
2022-10-22T11:30:57.003Z,31.01
2022-10-22T11:33:26.710Z,30.66
2022-10-22T11:35:54.321Z,30.84
2022-10-22T11:38:25.294Z,30.81
2022-10-22T11:40:52.481Z,30.62
2022-10-22T11:43:33.397Z,30.55
2022-10-22T11:46:15.934Z,30.52
2022-10-22T11:48:43.320Z,30.61
2022-10-22T11:51:46.814Z,30.60
2022-10-22T11:54:31.258Z,30.66
2022-10-22T11:57:17.794Z,30.37
2022-10-22T11:59:49.919Z,30.31
2022-10-22T12:02:24.724Z,30.40
2022-10-22T12:04:52.127Z,30.79
2022-10-22T12:07:31.496Z,30.80
2022-10-22T12:09:58.939Z,30.54
2022-10-22T12:12:28.932Z,30.68
2022-10-22T12:14:59.488Z,30.61
2022-10-22T12:17:28.465Z,30.32
2022-10-22T12:20:03.443Z,30.81
2022-10-22T12:22:32.610Z,30.54
2022-10-22T12:25:02.234Z,30.20
2022-10-22T12:27:35.366Z,30.70
2022-10-22T12:30:03.857Z,30.48
2022-10-22T12:32:42.883Z,30.53
2022-10-22T12:35:17.750Z,30.96
2022-10-22T12:37:45.306Z,30.52
2022-10-22T12:40:23.947Z,30.83
2022-10-22T12:42:56.148Z,30.36
2022-10-22T12:45:23.923Z,30.45
2022-10-22T12:47:52.632Z,30.60
2022-10-22T12:50:21.563Z,30.17
2022-10-22T12:52:48.938Z,30.38
2022-10-22T12:55:17.046Z,30.36
2022-10-22T12:57:46.420Z,30.14
2022-10-22T13:00:21.022Z,30.28
2022-10-22T13:02:48.277Z,30.01
2022-10-22T13:05:23.897Z,30.43
2022-10-22T13:07:55.773Z,30.67
2022-10-22T13:10:25.319Z,30.36
2022-10-22T13:12:56.756Z,30.64
2022-10-22T13:15:35.924Z,30.81
2022-10-22T13:18:17.279Z,30.54
2022-10-22T13:20:58.881Z,30.43
2022-10-22T13:23:28.106Z,30.52
2022-10-22T13:25:59.769Z,30.39
2022-10-22T13:28:27.673Z,30.43
2022-10-22T13:30:59.735Z,30.37
2022-10-22T13:33:33.534Z,30.77
2022-10-22T13:36:00.871Z,30.79
2022-10-22T13:38:28.329Z,30.59
2022-10-22T13:40:56.041Z,30.79
2022-10-22T13:43:23.766Z,30.80
2022-10-22T13:45:55.770Z,30.64
2022-10-22T13:48:23.984Z,30.63
2022-10-22T13:50:51.842Z,30.80
2022-10-22T13:53:20.695Z,30.51
2022-10-22T13:55:47.955Z,30.64
2022-10-22T13:58:19.202Z,30.55
2022-10-22T14:00:47.918Z,30.46
2022-10-22T14:03:21.596Z,30.62
2022-10-22T14:05:49.094Z,30.44
2022-10-22T14:08:19.228Z,30.56
2022-10-22T14:10:46.848Z,30.69
2022-10-22T14:13:14.829Z,30.45
2022-10-22T14:15:43.105Z,30.44
2022-10-22T14:18:12.821Z,30.52
2022-10-22T14:20:42.317Z,30.34
2022-10-22T14:23:19.578Z,30.46
2022-10-22T14:25:47.608Z,30.42
2022-10-22T14:28:14.817Z,30.73
2022-10-22T14:30:42.136Z,30.65
2022-10-22T14:33:14.991Z,30.44
2022-10-22T14:35:42.326Z,30.48
2022-10-22T14:38:09.630Z,30.46
2022-10-22T14:40:39.112Z,30.37
2022-10-22T14:43:06.496Z,30.42
2022-10-22T14:45:33.710Z,30.37
2022-10-22T14:48:02.033Z,30.39
2022-10-22T14:50:29.264Z,30.21
2022-10-22T14:52:58.923Z,30.29
2022-10-22T14:55:27.265Z,30.14
2022-10-22T14:57:54.558Z,30.29
2022-10-22T15:00:22.005Z,30.33
2022-10-22T15:02:49.395Z,30.32
2022-10-22T15:05:17.522Z,30.22
2022-10-22T15:07:45.376Z,30.49
2022-10-22T15:10:12.644Z,30.29
2022-10-22T15:12:39.908Z,30.26
2022-10-22T15:15:07.397Z,30.42
2022-10-22T15:17:34.624Z,30.18
2022-10-22T15:20:04.235Z,30.12
2022-10-22T15:22:35.282Z,30.22
2022-10-22T15:25:05.395Z,30.19
2022-10-22T15:27:32.763Z,30.03
2022-10-22T15:30:00.102Z,30.20
2022-10-22T15:32:29.180Z,30.18
2022-10-22T15:34:56.446Z,30.19
2022-10-22T15:37:23.742Z,30.22
2022-10-22T15:39:50.993Z,30.14
2022-10-22T15:42:21.283Z,29.97
2022-10-22T15:44:48.499Z,30.01
2022-10-22T15:47:15.676Z,29.96
2022-10-22T15:49:43.010Z,30.23
2022-10-22T15:52:10.295Z,30.33
2022-10-22T15:54:37.632Z,30.06
2022-10-22T15:57:08.711Z,29.86
2022-10-22T15:59:36.392Z,29.91
2022-10-22T16:02:03.608Z,30.09
2022-10-22T16:04:30.956Z,30.07
2022-10-22T16:06:58.937Z,29.89
2022-10-22T16:09:27.275Z,29.91
2022-10-22T16:11:55.631Z,29.97
2022-10-22T16:14:24.175Z,29.95
2022-10-22T16:16:52.557Z,29.98
2022-10-22T16:19:20.840Z,29.93
2022-10-22T16:21:51.986Z,30.05
2022-10-22T16:24:19.996Z,30.19
2022-10-22T16:26:47.740Z,30.08
2022-10-22T16:29:16.503Z,29.99
2022-10-22T16:31:44.128Z,29.96
2022-10-22T16:34:11.861Z,30.06
2022-10-22T16:36:39.233Z,30.15
2022-10-22T16:39:07.149Z,30.24
2022-10-22T16:41:37.234Z,30.23
2022-10-22T16:44:06.182Z,30.24
2022-10-22T16:46:34.088Z,30.27
2022-10-22T16:49:01.381Z,30.09
2022-10-22T16:51:28.706Z,29.95
2022-10-22T16:53:56.854Z,30.19
2022-10-22T16:56:25.084Z,30.37
2022-10-22T16:58:53.479Z,30.21
2022-10-22T17:01:22.268Z,29.99
2022-10-22T17:03:49.571Z,30.07
2022-10-22T17:06:16.831Z,30.06
2022-10-22T17:08:44.227Z,30.14
2022-10-22T17:11:12.931Z,30.12
2022-10-22T17:13:41.264Z,30.20
2022-10-22T17:16:10.361Z,30.18
2022-10-22T17:18:39.000Z,30.22
2022-10-22T17:21:07.378Z,30.13
2022-10-22T17:23:34.630Z,30.20
2022-10-22T17:26:08.602Z,30.36
2022-10-22T17:28:36.545Z,30.30
2022-10-22T17:31:08.656Z,30.15
2022-10-22T17:33:36.111Z,30.22
2022-10-22T17:36:09.242Z,30.21
2022-10-22T17:38:37.373Z,30.39
2022-10-22T17:41:06.963Z,30.36
2022-10-22T17:43:36.071Z,30.19
2022-10-22T17:46:06.853Z,30.38
2022-10-22T17:48:34.475Z,30.39
2022-10-22T17:51:05.567Z,30.31
2022-10-22T17:53:32.877Z,30.16
2022-10-22T17:56:01.369Z,30.21
2022-10-22T17:58:31.557Z,30.34
2022-10-22T18:00:58.847Z,30.25
2022-10-22T18:03:27.964Z,30.27
2022-10-22T18:05:55.754Z,30.29
2022-10-22T18:08:25.926Z,30.31
2022-10-22T18:10:53.163Z,30.39
2022-10-22T18:13:21.069Z,30.34
2022-10-22T18:15:54.002Z,30.42
2022-10-22T18:18:21.737Z,30.29
2022-10-22T18:20:52.216Z,30.35
2022-10-22T18:23:20.309Z,30.45
2022-10-22T18:25:48.800Z,30.37
2022-10-22T18:28:17.077Z,30.51
2022-10-22T18:30:44.580Z,30.35
2022-10-22T18:33:13.113Z,30.15
2022-10-22T18:35:43.543Z,30.20
2022-10-22T18:38:10.823Z,30.48
2022-10-22T18:40:43.727Z,30.38
2022-10-22T18:43:11.081Z,30.49
2022-10-22T18:45:45.367Z,30.65
2022-10-22T18:48:13.478Z,30.37
2022-10-22T18:50:40.867Z,30.43
2022-10-22T18:53:08.196Z,30.36
2022-10-22T18:55:38.158Z,30.32
2022-10-22T18:58:05.781Z,30.16
2022-10-22T19:00:34.631Z,30.17
2022-10-22T19:03:03.337Z,30.21
2022-10-22T19:05:31.238Z,30.29
2022-10-22T19:07:58.599Z,30.26
2022-10-22T19:10:25.810Z,30.21
2022-10-22T19:12:53.628Z,30.15
2022-10-22T19:15:20.944Z,30.23
2022-10-22T19:17:48.207Z,30.18
2022-10-22T19:20:15.431Z,30.35
2022-10-22T19:22:42.878Z,30.15
2022-10-22T19:25:11.979Z,30.24
2022-10-22T19:27:40.170Z,30.27
2022-10-22T19:30:08.019Z,30.05
2022-10-22T19:32:35.275Z,30.19
2022-10-22T19:35:02.597Z,30.29
2022-10-22T19:37:30.051Z,30.18
2022-10-22T19:39:57.252Z,30.03
2022-10-22T19:42:24.468Z,30.09
2022-10-22T19:44:51.768Z,30.13
2022-10-22T19:47:19.128Z,30.10
2022-10-22T19:49:46.386Z,30.15
2022-10-22T19:52:13.762Z,30.19
2022-10-22T19:54:41.985Z,30.06
2022-10-22T19:57:09.222Z,30.17
2022-10-22T19:59:36.516Z,30.13
2022-10-22T20:02:03.901Z,30.00
2022-10-22T20:04:31.210Z,30.08
2022-10-22T20:06:58.526Z,30.15
2022-10-22T20:09:25.828Z,29.92
2022-10-22T20:11:53.150Z,30.00
2022-10-22T20:14:20.451Z,29.95
2022-10-22T20:16:47.886Z,29.96
2022-10-22T20:19:16.405Z,29.98
2022-10-22T20:21:43.901Z,29.98
2022-10-22T20:24:12.011Z,29.81
2022-10-22T20:26:39.376Z,29.95
2022-10-22T20:29:07.844Z,30.09
2022-10-22T20:31:36.344Z,30.03
2022-10-22T20:34:04.213Z,30.11
2022-10-22T20:36:32.584Z,30.03
2022-10-22T20:39:01.189Z,30.07
2022-10-22T20:41:28.548Z,30.02
2022-10-22T20:43:55.809Z,30.14
2022-10-22T20:46:27.593Z,30.09
2022-10-22T20:48:56.956Z,30.43
2022-10-22T20:51:24.363Z,30.13
2022-10-22T20:53:51.591Z,29.89
2022-10-22T20:56:19.349Z,29.99
2022-10-22T20:58:49.496Z,30.10
2022-10-22T21:01:21.810Z,30.14
2022-10-22T21:03:52.498Z,30.02
2022-10-22T21:06:23.235Z,29.96
2022-10-22T21:08:51.456Z,29.91
2022-10-22T21:11:19.460Z,29.87
2022-10-22T21:13:46.859Z,29.95
2022-10-22T21:16:14.832Z,29.89
2022-10-22T21:18:42.083Z,30.07
2022-10-22T21:21:09.742Z,30.33
2022-10-22T21:23:37.408Z,30.07
2022-10-22T21:26:05.132Z,30.38
2022-10-22T21:28:35.410Z,30.30
2022-10-22T21:31:04.116Z,30.58
2022-10-22T21:33:31.625Z,30.13
2022-10-22T21:35:58.971Z,30.01
2022-10-22T21:38:26.332Z,29.85
2022-10-22T21:40:53.615Z,30.32
2022-10-22T21:43:20.902Z,30.24
2022-10-22T21:45:48.158Z,29.97
2022-10-22T21:48:15.769Z,29.95
2022-10-22T21:50:43.768Z,30.12
2022-10-22T21:53:12.051Z,29.95
2022-10-22T21:55:40.058Z,29.91
2022-10-22T21:58:07.934Z,30.02
2022-10-22T22:00:35.448Z,29.81
2022-10-22T22:03:02.692Z,29.89
2022-10-22T22:05:30.074Z,30.05
2022-10-22T22:07:57.357Z,30.27
2022-10-22T22:10:26.637Z,30.09
2022-10-22T22:12:54.315Z,29.95
2022-10-22T22:15:21.577Z,29.96
2022-10-22T22:17:48.762Z,30.00
2022-10-22T22:20:16.065Z,29.96
2022-10-22T22:22:43.510Z,30.08
2022-10-22T22:25:11.078Z,30.05
2022-10-22T22:27:38.377Z,29.98
2022-10-22T22:30:05.977Z,29.85
2022-10-22T22:32:33.263Z,30.07
2022-10-22T22:35:00.494Z,30.05
2022-10-22T22:37:27.700Z,29.70
2022-10-22T22:39:55.157Z,29.93
2022-10-22T22:42:22.721Z,29.93
2022-10-22T22:44:49.930Z,29.76
2022-10-22T22:47:17.238Z,29.88
2022-10-22T22:49:44.472Z,29.89
2022-10-22T22:52:11.764Z,29.85
2022-10-22T22:54:38.972Z,29.74
2022-10-22T22:57:06.414Z,29.89
2022-10-22T22:59:33.599Z,29.90
2022-10-22T23:02:00.803Z,29.95
2022-10-22T23:04:30.264Z,29.92
2022-10-22T23:06:57.625Z,29.89
2022-10-22T23:09:24.889Z,30.09
2022-10-22T23:11:52.524Z,29.99
2022-10-22T23:14:20.116Z,29.74
2022-10-22T23:16:48.911Z,29.75
2022-10-22T23:19:18.565Z,29.83
2022-10-22T23:21:49.272Z,29.88
2022-10-22T23:24:18.017Z,30.01
2022-10-22T23:26:46.477Z,30.24
2022-10-22T23:29:15.366Z,29.95
2022-10-22T23:31:43.200Z,29.93
2022-10-22T23:34:11.541Z,30.36
2022-10-22T23:36:39.416Z,30.34
2022-10-22T23:39:07.904Z,30.15
2022-10-22T23:41:35.307Z,30.31
2022-10-22T23:44:03.078Z,30.32
2022-10-22T23:46:30.541Z,30.07
2022-10-22T23:48:57.761Z,30.06
2022-10-22T23:51:25.191Z,30.15
2022-10-22T23:53:56.627Z,30.20
2022-10-22T23:56:24.116Z,30.28
2022-10-22T23:58:52.355Z,30.19
